createdAt,value
2018-07-09T00:01:46.356Z,1.55
2018-07-09T00:04:15.185Z,1.40
2018-07-09T00:06:44.027Z,1.40
2018-07-09T00:09:13.096Z,1.30
2018-07-09T00:11:41.704Z,1.30
2018-07-09T00:14:10.534Z,1.10
2018-07-09T00:16:39.385Z,1.35
2018-07-09T00:19:08.225Z,1.10
2018-07-09T00:21:37.811Z,1.52
2018-07-09T00:24:06.644Z,1.25
2018-07-09T00:26:35.485Z,1.40
2018-07-09T00:29:04.319Z,1.30
2018-07-09T00:31:33.163Z,1.50
2018-07-09T00:34:01.998Z,1.75
2018-07-09T00:36:30.833Z,1.50
2018-07-09T00:38:59.666Z,1.40
2018-07-09T00:41:28.516Z,1.20
2018-07-09T00:43:57.358Z,1.30
2018-07-09T00:46:26.193Z,1.30
2018-07-09T00:48:55.030Z,1.20
2018-07-09T00:51:23.871Z,1.33
2018-07-09T00:53:52.710Z,1.40
2018-07-09T00:56:21.699Z,1.40
2018-07-09T00:58:50.419Z,1.40
2018-07-09T01:01:19.260Z,1.40
2018-07-09T01:03:48.850Z,1.23
2018-07-09T01:06:18.427Z,1.33
2018-07-09T01:08:47.262Z,1.43
2018-07-09T01:14:04.900Z,1.20
2018-07-09T01:16:33.745Z,1.30
2018-07-09T01:19:02.577Z,1.33
2018-07-09T01:21:31.429Z,1.40
2018-07-09T01:24:00.270Z,1.40
2018-07-09T01:26:29.152Z,1.40
2018-07-09T01:28:57.997Z,1.30
2018-07-09T01:31:26.835Z,1.30
2018-07-09T01:33:56.409Z,1.37
2018-07-09T01:36:25.831Z,1.20
2018-07-09T01:38:55.402Z,1.30
2018-07-09T01:41:24.285Z,1.37
2018-07-09T01:43:53.096Z,1.20
2018-07-09T01:46:21.930Z,1.20
2018-07-09T01:48:50.775Z,1.20
2018-07-09T01:51:19.602Z,1.20
2018-07-09T01:53:48.438Z,1.30
2018-07-09T01:56:17.280Z,1.33
2018-07-09T01:58:46.137Z,1.43
2018-07-09T02:01:14.978Z,1.43
2018-07-09T02:03:43.823Z,1.20
2018-07-09T02:06:12.672Z,1.23
2018-07-09T02:08:41.513Z,1.50
2018-07-09T02:11:10.367Z,1.20
2018-07-09T02:13:39.208Z,1.58
2018-07-09T02:16:08.041Z,1.23
2018-07-09T02:18:36.888Z,1.47
2018-07-09T02:21:05.726Z,1.30
2018-07-09T02:23:34.559Z,1.43
2018-07-09T02:26:04.140Z,1.50
2018-07-09T02:28:32.991Z,1.40
2018-07-09T02:31:01.827Z,1.50
2018-07-09T02:33:31.416Z,1.23
2018-07-09T02:36:00.256Z,1.20
2018-07-09T02:38:29.102Z,1.20
2018-07-09T02:40:57.953Z,1.40
2018-07-09T02:43:26.783Z,1.23
2018-07-09T02:45:55.622Z,1.50
2018-07-09T02:48:24.459Z,1.20
2018-07-09T02:50:53.298Z,1.43
2018-07-09T02:53:22.133Z,1.10
2018-07-09T02:55:50.983Z,1.30
2018-07-09T02:58:19.813Z,1.42
2018-07-09T03:00:48.664Z,1.13
2018-07-09T03:03:17.495Z,1.40
2018-07-09T03:05:46.343Z,1.50
2018-07-09T03:08:15.177Z,1.40
2018-07-09T03:10:44.015Z,1.33
2018-07-09T03:13:12.847Z,1.23
2018-07-09T03:15:41.691Z,1.20
2018-07-09T03:18:10.528Z,1.40
2018-07-09T03:20:39.374Z,1.23
2018-07-09T03:23:08.202Z,1.40
2018-07-09T03:25:37.046Z,1.40
2018-07-09T03:28:05.882Z,1.90
2018-07-09T03:30:35.461Z,1.30
2018-07-09T03:33:04.298Z,1.40
2018-07-09T03:35:33.138Z,1.40
2018-07-09T03:38:01.979Z,1.40
2018-07-09T03:40:30.820Z,1.40
2018-07-09T03:42:59.658Z,1.30
2018-07-09T03:45:29.234Z,1.60
2018-07-09T03:47:58.070Z,1.30
2018-07-09T03:50:26.905Z,1.57
2018-07-09T03:52:55.748Z,1.70
2018-07-09T03:55:24.587Z,1.30
2018-07-09T03:57:53.416Z,1.63
2018-07-09T04:00:22.269Z,1.60
2018-07-09T04:02:51.099Z,1.40
2018-07-09T04:05:19.934Z,1.40
2018-07-09T04:07:48.761Z,1.40
2018-07-09T04:10:17.593Z,1.40
2018-07-09T04:12:46.444Z,1.53
2018-07-09T04:15:16.021Z,1.67
2018-07-09T04:17:44.858Z,1.50
2018-07-09T04:20:14.434Z,1.50
2018-07-09T04:22:43.265Z,1.67
2018-07-09T04:25:12.105Z,1.50
2018-07-09T04:27:40.938Z,1.43
2018-07-09T04:30:09.780Z,1.70
2018-07-09T04:32:38.633Z,1.70
2018-07-09T04:35:07.574Z,1.60
2018-07-09T04:37:36.422Z,1.80
2018-07-09T04:40:05.288Z,1.70
2018-07-09T04:42:34.113Z,1.57
2018-07-09T04:45:02.965Z,1.60
2018-07-09T04:47:32.541Z,1.65
2018-07-09T04:50:01.389Z,1.77
2018-07-09T04:52:30.235Z,1.90
2018-07-09T04:54:59.806Z,1.70
2018-07-09T04:57:28.635Z,1.60
2018-07-09T04:59:57.530Z,1.60
2018-07-09T05:02:26.334Z,1.90
2018-07-09T05:04:55.184Z,1.80
2018-07-09T05:07:24.024Z,1.73
2018-07-09T05:09:52.867Z,2.07
2018-07-09T05:12:21.699Z,1.60
2018-07-09T05:14:51.274Z,1.90
2018-07-09T05:17:20.113Z,1.92
2018-07-09T05:19:49.693Z,2.07
2018-07-09T05:22:18.536Z,2.00
2018-07-09T05:24:47.377Z,2.20
2018-07-09T05:27:16.214Z,2.00
2018-07-09T05:29:45.045Z,1.83
2018-07-09T05:32:13.873Z,2.10
2018-07-09T05:34:42.710Z,1.83
2018-07-09T05:37:11.545Z,2.07
2018-07-09T05:39:40.386Z,1.67
2018-07-09T05:42:09.222Z,2.17
2018-07-09T05:44:38.059Z,1.73
2018-07-09T05:47:06.911Z,2.10
2018-07-09T05:49:35.742Z,1.80
2018-07-09T05:52:04.579Z,1.90
2018-07-09T05:54:33.425Z,1.87
2018-07-09T05:57:02.266Z,1.80
2018-07-09T05:59:31.128Z,1.70
2018-07-09T06:01:59.983Z,2.10
2018-07-09T06:04:28.860Z,2.30
2018-07-09T06:06:57.666Z,2.20
2018-07-09T06:09:26.499Z,2.20
2018-07-09T06:11:56.074Z,2.30
2018-07-09T06:14:24.909Z,2.40
2018-07-09T06:16:53.742Z,2.50
2018-07-09T06:19:22.596Z,2.43
2018-07-09T06:21:51.417Z,2.40
2018-07-09T06:24:20.247Z,2.00
2018-07-09T06:26:49.824Z,2.80
2018-07-09T06:29:18.659Z,1.80
2018-07-09T06:31:47.495Z,2.30
2018-07-09T06:34:16.337Z,2.40
2018-07-09T06:36:45.904Z,2.17
2018-07-09T06:39:14.745Z,2.43
2018-07-09T06:41:43.586Z,2.47
2018-07-09T06:44:12.436Z,2.07
2018-07-09T06:46:41.264Z,2.20
2018-07-09T06:49:10.097Z,2.00
2018-07-09T06:51:38.973Z,1.90
2018-07-09T06:54:07.823Z,2.13
2018-07-09T06:56:36.662Z,1.80
2018-07-09T06:59:05.504Z,1.73
2018-07-09T07:01:34.333Z,1.83
2018-07-09T07:04:03.170Z,1.87
2018-07-09T07:06:32.015Z,1.83
2018-07-09T07:09:00.922Z,2.13
2018-07-09T07:11:29.674Z,2.23
2018-07-09T07:13:58.509Z,2.10
2018-07-09T07:16:27.380Z,1.93
2018-07-09T07:18:56.189Z,2.07
2018-07-09T07:21:25.037Z,1.93
2018-07-09T07:23:53.899Z,2.23
2018-07-09T07:26:22.739Z,1.93
2018-07-09T07:28:52.305Z,1.90
2018-07-09T07:31:21.161Z,1.90
2018-07-09T07:33:50.002Z,2.17
2018-07-09T07:36:19.583Z,2.00
2018-07-09T07:38:48.428Z,2.10
2018-07-09T07:41:17.268Z,2.47
2018-07-09T07:43:46.100Z,2.37
2018-07-09T07:46:14.939Z,1.77
2018-07-09T07:48:43.779Z,2.28
2018-07-09T07:51:12.619Z,2.30
2018-07-09T07:53:41.452Z,2.20
2018-07-09T07:56:10.294Z,2.20
2018-07-09T07:58:39.141Z,2.15
2018-07-09T08:01:07.987Z,2.10
2018-07-09T08:03:36.839Z,2.45
2018-07-09T08:06:05.685Z,2.40
2018-07-09T08:08:35.272Z,2.15
2018-07-09T08:11:11.068Z,2.12
2018-07-09T08:13:32.963Z,2.08
2018-07-09T08:16:01.779Z,2.20
2018-07-09T08:18:31.350Z,1.75
2018-07-09T08:21:00.228Z,1.58
2018-07-09T08:23:29.087Z,1.50
2018-07-09T08:25:57.926Z,2.00
2018-07-09T08:28:26.762Z,1.90
2018-07-09T08:30:55.609Z,1.90
2018-07-09T08:33:25.191Z,1.85
2018-07-09T08:35:54.042Z,1.90
2018-07-09T08:38:22.877Z,2.22
2018-07-09T08:40:51.719Z,2.03
2018-07-09T08:43:20.556Z,2.10
2018-07-09T08:45:49.409Z,1.70
2018-07-09T08:48:18.248Z,2.28
2018-07-09T08:50:47.104Z,2.00
2018-07-09T08:53:15.939Z,2.00
2018-07-09T08:55:45.511Z,1.95
2018-07-09T08:58:14.361Z,1.87
2018-07-09T09:00:43.191Z,1.62
2018-07-09T09:03:12.043Z,2.20
2018-07-09T09:05:40.878Z,2.20
2018-07-09T09:08:09.737Z,2.10
2018-07-09T09:10:38.574Z,2.10
2018-07-09T09:13:08.159Z,1.90
2018-07-09T09:15:37.009Z,1.62
2018-07-09T09:18:05.862Z,1.90
2018-07-09T09:20:34.702Z,2.00
2018-07-09T09:23:03.538Z,1.77
2018-07-09T09:25:33.139Z,2.22
2018-07-09T09:28:01.965Z,2.08
2018-07-09T09:30:30.815Z,1.80
2018-07-09T09:33:00.400Z,2.10
2018-07-09T09:35:29.239Z,1.80
2018-07-09T09:37:58.086Z,2.00
2018-07-09T09:40:26.967Z,2.12
2018-07-09T09:42:55.782Z,2.10
2018-07-09T09:45:24.635Z,2.20
2018-07-09T09:47:53.479Z,2.12
2018-07-09T09:50:23.063Z,2.05
2018-07-09T09:52:51.922Z,2.05
2018-07-09T09:55:20.761Z,1.87
2018-07-09T09:57:49.605Z,2.17
2018-07-09T10:00:18.456Z,2.20
2018-07-09T10:02:47.289Z,1.90
2018-07-09T10:05:16.138Z,2.28
2018-07-09T10:07:45.710Z,2.00
2018-07-09T10:10:14.556Z,2.10
2018-07-09T10:12:43.432Z,1.73
2018-07-09T10:15:12.241Z,1.80
2018-07-09T10:17:41.830Z,2.10
2018-07-09T10:20:10.675Z,1.80
2018-07-09T10:22:39.520Z,1.98
2018-07-09T10:25:08.358Z,2.40
2018-07-09T10:27:37.205Z,1.77
2018-07-09T10:30:06.051Z,2.00
2018-07-09T10:32:34.904Z,2.15
2018-07-09T10:35:03.757Z,1.90
2018-07-09T10:37:33.345Z,2.10
2018-07-09T10:40:02.178Z,2.20
2018-07-09T10:42:31.021Z,2.30
2018-07-09T10:45:00.611Z,2.20
2018-07-09T10:47:29.452Z,2.30
2018-07-09T10:49:59.036Z,1.85
2018-07-09T10:52:28.614Z,1.77
2018-07-09T10:54:57.454Z,1.90
2018-07-09T10:57:27.036Z,2.00
2018-07-09T10:59:55.866Z,2.10
2018-07-09T11:02:24.701Z,1.85
2018-07-09T11:04:53.543Z,2.00
2018-07-09T11:07:22.378Z,1.83
2018-07-09T11:09:51.216Z,2.10
2018-07-09T11:12:20.059Z,2.00
2018-07-09T11:14:48.900Z,2.30
2018-07-09T11:17:17.747Z,2.10
2018-07-09T11:19:46.578Z,1.85
2018-07-09T11:22:15.426Z,1.90
2018-07-09T11:24:44.285Z,2.20
2018-07-09T11:27:13.123Z,2.20
2018-07-09T11:29:42.705Z,2.10
2018-07-09T11:32:11.534Z,2.00
2018-07-09T11:34:40.391Z,2.00
2018-07-09T11:37:09.237Z,1.75
2018-07-09T11:39:38.088Z,1.65
2018-07-09T11:42:06.934Z,2.10
2018-07-09T11:44:35.762Z,1.87
2018-07-09T11:47:05.354Z,1.90
2018-07-09T11:49:34.203Z,2.00
2018-07-09T11:52:03.092Z,1.80
2018-07-09T11:54:32.622Z,1.90
2018-07-09T11:57:01.454Z,1.70
2018-07-09T11:59:30.296Z,1.70
2018-07-09T12:01:59.209Z,1.73
2018-07-09T12:04:28.722Z,1.98
2018-07-09T12:06:57.572Z,1.70
2018-07-09T12:09:26.418Z,1.83
2018-07-09T12:11:55.999Z,1.83
2018-07-09T12:14:24.853Z,2.00
2018-07-09T12:16:53.692Z,1.80
2018-07-09T12:19:22.537Z,1.85
2018-07-09T12:21:51.373Z,1.75
2018-07-09T12:24:20.227Z,1.92
2018-07-09T12:26:49.070Z,1.90
2018-07-09T12:29:17.920Z,1.60
2018-07-09T12:31:46.749Z,1.60
2018-07-09T12:34:15.582Z,1.67
2018-07-09T12:36:44.436Z,1.60
2018-07-09T12:39:13.275Z,1.77
2018-07-09T12:41:42.106Z,1.73
2018-07-09T12:44:10.968Z,1.95
2018-07-09T12:46:40.391Z,1.60
2018-07-09T12:49:09.976Z,1.70
2018-07-09T12:51:38.817Z,1.40
2018-07-09T12:54:07.662Z,1.58
2018-07-09T12:56:36.497Z,1.62
2018-07-09T12:59:05.332Z,1.50
2018-07-09T13:01:34.239Z,1.70
2018-07-09T13:04:03.025Z,1.52
2018-07-09T13:06:32.613Z,1.62
2018-07-09T13:09:01.457Z,1.80
2018-07-09T13:11:30.532Z,1.60
2018-07-09T13:13:59.401Z,1.65
2018-07-09T13:16:28.237Z,1.60
2018-07-09T13:18:57.087Z,1.60
2018-07-09T13:21:25.917Z,1.85
2018-07-09T13:23:54.772Z,1.80
2018-07-09T13:26:24.355Z,1.80
2018-07-09T13:28:53.189Z,1.80
2018-07-09T13:31:22.027Z,1.92
2018-07-09T13:33:50.871Z,1.70
2018-07-09T13:36:19.718Z,1.55
2018-07-09T13:38:48.579Z,2.10
2018-07-09T13:41:17.422Z,2.08
2018-07-09T13:43:46.246Z,1.80
2018-07-09T13:46:15.841Z,1.90
2018-07-09T13:48:45.422Z,1.70
2018-07-09T13:51:14.267Z,1.90
2018-07-09T13:53:43.841Z,2.03
2018-07-09T13:56:12.674Z,2.00
2018-07-09T13:58:41.516Z,1.73
2018-07-09T14:01:10.388Z,1.60
2018-07-09T14:03:39.246Z,1.90
2018-07-09T14:06:08.113Z,1.67
2018-07-09T14:08:36.970Z,1.50
2018-07-09T14:11:05.817Z,1.70
2018-07-09T14:13:34.696Z,1.60
2018-07-09T14:16:05.303Z,1.80
2018-07-09T14:18:34.154Z,1.55
2018-07-09T14:21:02.994Z,1.58
2018-07-09T14:23:32.585Z,1.60
2018-07-09T14:26:02.025Z,1.70
2018-07-09T14:28:30.876Z,1.60
2018-07-09T14:30:59.745Z,1.83
2018-07-09T14:33:28.591Z,1.75
2018-07-09T14:35:57.440Z,1.60
2018-07-09T14:38:26.300Z,1.33
2018-07-09T14:40:55.186Z,1.40
2018-07-09T14:43:24.743Z,1.15
2018-07-09T14:45:53.612Z,1.60
2018-07-09T14:48:22.416Z,1.20
2018-07-09T14:50:51.262Z,1.52
2018-07-09T14:53:20.119Z,1.33
2018-07-09T14:55:48.970Z,1.70
2018-07-09T14:58:17.825Z,2.10
2018-07-09T15:00:46.649Z,1.85
2018-07-09T15:03:15.483Z,1.58
2018-07-09T15:05:44.329Z,1.40
2018-07-09T15:08:13.761Z,1.40
2018-07-09T15:10:42.608Z,1.67
2018-07-09T15:13:11.469Z,1.50
2018-07-09T15:15:40.316Z,1.23
2018-07-09T15:18:09.160Z,1.40
2018-07-09T15:20:38.001Z,1.50
2018-07-09T15:23:07.593Z,1.25
2018-07-09T15:25:36.442Z,1.40
2018-07-09T15:28:05.297Z,1.70
2018-07-09T15:30:34.139Z,1.48
2018-07-09T15:33:02.990Z,1.60
2018-07-09T15:35:31.848Z,1.50
2018-07-09T15:38:00.719Z,1.55
2018-07-09T15:40:29.554Z,1.60
2018-07-09T15:42:59.144Z,1.60
2018-07-09T15:45:28.585Z,1.90
2018-07-09T15:47:57.437Z,1.60
2018-07-09T15:50:26.273Z,1.48
2018-07-09T15:52:55.133Z,1.70
2018-07-09T15:55:23.976Z,1.50
2018-07-09T15:57:52.813Z,1.35
2018-07-09T16:00:21.665Z,1.42
2018-07-09T16:02:50.528Z,1.62
2018-07-09T16:05:19.367Z,1.50
2018-07-09T16:07:48.216Z,1.67
2018-07-09T16:10:17.066Z,1.60
2018-07-09T16:12:45.978Z,1.58
2018-07-09T16:15:14.785Z,1.75
2018-07-09T16:17:43.633Z,1.75
2018-07-09T16:20:12.476Z,1.67
2018-07-09T16:22:41.306Z,1.48
2018-07-09T16:25:10.169Z,1.33
2018-07-09T16:27:39.000Z,1.30
2018-07-09T16:30:07.843Z,1.70
2018-07-09T16:32:36.669Z,1.60
2018-07-09T16:35:05.510Z,1.70
2018-07-09T16:37:34.349Z,1.60
2018-07-09T16:40:03.182Z,1.60
2018-07-09T16:42:32.032Z,1.60
2018-07-09T16:45:00.866Z,1.30
2018-07-09T16:47:29.728Z,1.42
2018-07-09T16:49:58.553Z,1.65
2018-07-09T16:52:27.404Z,1.52
2018-07-09T16:54:56.312Z,1.67
2018-07-09T16:57:25.105Z,1.48
2018-07-09T16:59:53.959Z,2.00
2018-07-09T17:02:22.797Z,1.50
2018-07-09T17:04:51.648Z,1.60
2018-07-09T17:07:20.494Z,1.80
2018-07-09T17:09:49.340Z,1.67
2018-07-09T17:12:18.194Z,1.67
2018-07-09T17:14:47.099Z,1.40
2018-07-09T17:17:15.899Z,1.85
2018-07-09T17:19:44.791Z,1.67
2018-07-09T17:22:14.331Z,1.80
2018-07-09T17:24:43.189Z,1.73
2018-07-09T17:27:12.143Z,1.87
2018-07-09T17:29:40.904Z,1.90
2018-07-09T17:32:09.757Z,1.58
2018-07-09T17:34:38.593Z,1.70
2018-07-09T17:37:07.446Z,1.80
2018-07-09T17:39:36.293Z,1.83
2018-07-09T17:42:05.130Z,2.05
2018-07-09T17:44:33.974Z,1.65
2018-07-09T17:47:02.819Z,1.77
2018-07-09T17:49:31.672Z,1.70
2018-07-09T17:52:00.502Z,1.52
2018-07-09T17:54:29.348Z,1.83
2018-07-09T17:56:59.134Z,1.70
2018-07-09T17:59:27.977Z,1.98
2018-07-09T18:01:56.830Z,1.80
2018-07-09T18:04:26.407Z,1.77
2018-07-09T18:06:55.247Z,1.90
2018-07-09T18:09:24.840Z,1.67
2018-07-09T18:11:53.669Z,1.67
2018-07-09T18:14:22.517Z,2.00
2018-07-09T18:16:51.345Z,2.03
2018-07-09T18:19:20.182Z,2.00
2018-07-09T18:21:49.014Z,1.92
2018-07-09T18:24:17.877Z,1.55
2018-07-09T18:26:46.723Z,1.70
2018-07-09T18:29:15.564Z,1.85
2018-07-09T18:31:44.406Z,1.70
2018-07-09T18:34:13.254Z,1.70
2018-07-09T18:36:42.086Z,1.83
2018-07-09T18:39:10.922Z,1.60
2018-07-09T18:41:39.761Z,2.05
2018-07-09T18:44:08.605Z,1.50
2018-07-09T18:46:37.466Z,1.80
2018-07-09T18:49:06.317Z,1.85
2018-07-09T18:51:35.159Z,1.75
2018-07-09T18:54:04.013Z,1.80
2018-07-09T18:56:32.872Z,1.62
2018-07-09T18:59:01.708Z,1.55
2018-07-09T19:01:30.617Z,1.98
2018-07-09T19:03:59.426Z,1.67
2018-07-09T19:06:29.021Z,1.42
2018-07-09T19:08:57.862Z,1.58
2018-07-09T19:11:26.709Z,1.40
2018-07-09T19:13:55.552Z,1.52
2018-07-09T19:16:24.394Z,1.25
2018-07-09T19:19:11.055Z,1.60
2018-07-09T19:21:51.766Z,1.77
2018-07-09T19:24:19.850Z,1.40
2018-07-09T19:26:47.943Z,1.45
2018-07-09T19:29:16.046Z,1.37
2018-07-09T19:31:44.127Z,1.50
2018-07-09T19:34:12.217Z,1.20
2018-07-09T19:36:40.343Z,1.10
2018-07-09T19:39:08.392Z,1.10
2018-07-09T19:41:36.505Z,1.35
2018-07-09T19:44:04.597Z,1.20
2018-07-09T19:46:32.709Z,1.17
2018-07-09T19:49:01.566Z,1.27
2018-07-09T19:51:29.650Z,1.40
2018-07-09T19:53:57.765Z,1.85
2018-07-09T19:56:25.878Z,1.27
2018-07-09T19:58:53.965Z,1.48
2018-07-09T20:01:22.068Z,1.50
2018-07-09T20:03:50.164Z,1.48
2018-07-09T20:06:18.265Z,1.65
2018-07-09T20:08:46.399Z,1.60
2018-07-09T20:11:16.378Z,1.60
2018-07-09T20:13:45.346Z,1.37
2018-07-09T20:16:13.430Z,1.60
2018-07-09T20:18:41.530Z,1.30
2018-07-09T20:21:09.622Z,1.58
2018-07-09T20:23:38.463Z,1.40
2018-07-09T20:26:06.560Z,1.30
2018-07-09T20:28:34.667Z,1.48
2018-07-09T20:31:02.770Z,1.37
2018-07-09T20:33:30.878Z,1.40
2018-07-09T20:35:58.962Z,1.50
2018-07-09T20:38:27.790Z,1.58
2018-07-09T20:40:55.886Z,1.37
2018-07-09T20:43:23.987Z,1.37
2018-07-09T20:45:52.076Z,1.20
2018-07-09T20:48:20.912Z,1.65
2018-07-09T20:50:49.016Z,1.60
2018-07-09T20:53:17.107Z,1.40
2018-07-09T20:55:45.944Z,1.50
2018-07-09T20:58:14.041Z,1.85
2018-07-09T21:00:42.134Z,1.02
2018-07-09T21:03:10.990Z,1.50
2018-07-09T21:05:39.077Z,1.60
2018-07-09T21:08:07.170Z,1.52
2018-07-09T21:10:35.257Z,1.33
2018-07-09T21:13:03.347Z,1.40
2018-07-09T21:15:31.527Z,1.60
2018-07-09T21:17:59.529Z,1.40
2018-07-09T21:20:27.623Z,1.45
2018-07-09T21:22:56.445Z,1.30
2018-07-09T21:25:24.546Z,1.60
2018-07-09T21:27:52.641Z,1.55
2018-07-09T21:30:20.756Z,1.40
2018-07-09T21:32:48.841Z,1.70
2018-07-09T21:35:16.936Z,1.60
2018-07-09T21:37:45.148Z,1.70
2018-07-09T21:40:13.137Z,1.50
2018-07-09T21:42:41.238Z,1.30
2018-07-09T21:45:09.332Z,1.37
2018-07-09T21:47:37.419Z,1.42
2018-07-09T21:50:05.515Z,1.60
2018-07-09T21:52:34.355Z,1.45
2018-07-09T21:55:02.439Z,1.75
2018-07-09T21:57:30.526Z,1.45
2018-07-09T21:59:58.600Z,1.50
2018-07-09T22:02:26.717Z,1.25
2018-07-09T22:04:54.792Z,1.40
2018-07-09T22:07:22.909Z,1.40
2018-07-09T22:09:50.997Z,1.35
2018-07-09T22:12:19.082Z,1.60
2018-07-09T22:14:47.170Z,1.60
2018-07-09T22:17:15.251Z,1.45
2018-07-09T22:19:43.355Z,1.55
2018-07-09T22:22:11.435Z,1.48
2018-07-09T22:24:39.586Z,1.27
2018-07-09T22:27:07.606Z,1.40
2018-07-09T22:29:35.692Z,1.50
2018-07-09T22:32:04.539Z,1.73
2018-07-09T22:34:33.379Z,1.05
2018-07-09T22:37:02.231Z,1.20
2018-07-09T22:39:31.082Z,1.23
2018-07-09T22:41:59.922Z,1.35
2018-07-09T22:44:28.770Z,1.30
2018-07-09T22:46:57.603Z,1.40
2018-07-09T22:49:27.185Z,1.42
2018-07-09T22:51:56.024Z,1.92
2018-07-09T22:54:24.911Z,1.42
2018-07-09T22:56:53.711Z,1.55
2018-07-09T22:59:22.546Z,1.67
2018-07-09T23:01:51.378Z,1.60
2018-07-09T23:04:20.969Z,1.40
2018-07-09T23:06:50.551Z,1.52
2018-07-09T23:09:19.390Z,1.52
2018-07-09T23:11:48.229Z,1.70
2018-07-09T23:14:17.062Z,1.40
2018-07-09T23:16:59.430Z,1.60
2018-07-09T23:19:31.102Z,1.60
2018-07-09T23:21:59.947Z,1.80
2018-07-09T23:24:28.031Z,1.90
2018-07-09T23:26:56.116Z,1.55
2018-07-09T23:29:24.217Z,1.60
2018-07-09T23:31:53.049Z,1.70
2018-07-09T23:34:21.142Z,2.00
2018-07-09T23:36:49.246Z,1.90
2018-07-09T23:39:17.333Z,1.98
2018-07-09T23:41:46.167Z,1.85
2018-07-09T23:44:14.264Z,1.98
2018-07-09T23:46:42.360Z,2.20
2018-07-09T23:49:11.203Z,1.62
2018-07-09T23:51:39.300Z,1.90
2018-07-09T23:54:07.402Z,1.60
2018-07-09T23:56:36.258Z,2.00
2018-07-09T23:59:05.088Z,2.22
